Time;durP1;ratioP1;P1;durP2;ratioP2;P2;SDS_P1;SDS_P2;PMS_P1;PMS_P2;Temp;Humidity;BMP_temperature;BMP_pressure;BME280_temperature;BME280_humidity;BME280_pressure;Samples;Min_cycle;Max_cycle;Signal;HPM_P1;HPM_P2
2021/09/24 00:00:31;;;;;;;8.63;6.80;;;;;;;7.43;81.53;92712.70;1724679;80;21132;-90
2021/09/24 00:02:58;;;;;;;9.38;6.65;;;;;;;7.41;81.65;92712.34;1804920;77;21032;-86
2021/09/24 00:05:24;;;;;;;8.85;5.78;;;;;;;7.38;81.94;92718.53;1735652;80;21457;-88
2021/09/24 00:07:52;;;;;;;8.68;6.05;;;;;;;7.35;82.45;92710.42;1746651;79;21046;-89
2021/09/24 00:10:20;;;;;;;6.40;5.20;;;;;;;7.34;82.73;92715.07;1752589;80;21144;-86
2021/09/24 00:12:48;;;;;;;9.43;6.60;;;;;;;7.33;83.05;92726.27;1731003;79;21085;-88
2021/09/24 00:15:16;;;;;;;7.50;6.10;;;;;;;7.33;83.05;92681.64;1711275;79;21578;-89
2021/09/24 00:17:45;;;;;;;9.58;6.35;;;;;;;7.34;83.65;92648.81;1759199;79;21072;-91
2021/09/24 00:20:13;;;;;;;7.58;6.22;;;;;;;7.36;83.63;92654.58;1730356;82;21796;-89
2021/09/24 00:22:41;;;;;;;8.28;6.65;;;;;;;7.37;83.80;92659.41;1732282;79;21069;-91
2021/09/24 00:25:09;;;;;;;12.47;6.83;;;;;;;7.39;84.07;92649.74;1746800;80;21508;-90
2021/09/24 00:27:37;;;;;;;9.30;6.53;;;;;;;7.40;84.11;92645.86;1783192;78;21082;-93
2021/09/24 00:30:05;;;;;;;8.08;5.90;;;;;;;7.43;84.29;92613.98;1746054;80;21010;-89
2021/09/24 00:32:32;;;;;;;8.20;6.28;;;;;;;7.46;84.53;92630.02;1715299;81;21644;-91
2021/09/24 00:35:00;;;;;;;7.47;6.12;;;;;;;7.46;84.58;92632.13;1716835;81;20927;-89
2021/09/24 00:37:27;;;;;;;7.33;5.60;;;;;;;7.48;84.63;92604.67;1725785;81;21003;-87
2021/09/24 00:39:53;;;;;;;8.85;5.92;;;;;;;7.49;84.97;92615.70;1732641;80;20998;-87
2021/09/24 00:42:21;;;;;;;8.98;5.37;;;;;;;7.48;85.28;92611.44;1784102;78;21052;-88
2021/09/24 00:44:49;;;;;;;7.40;5.80;;;;;;;7.48;85.44;92591.15;1713697;83;21824;-86
2021/09/24 00:47:19;;;;;;;10.50;6.30;;;;;;;7.48;85.94;92552.69;1748911;81;20987;-88
2021/09/24 00:49:46;;;;;;;8.98;5.92;;;;;;;7.50;86.20;92567.19;1753109;79;21679;-87
2021/09/24 00:52:14;;;;;;;7.20;6.37;;;;;;;7.49;86.39;92537.26;1754848;80;21069;-89
2021/09/24 00:54:40;;;;;;;11.20;6.55;;;;;;;7.50;86.54;92540.14;1754158;79;21155;-93
2021/09/24 00:57:07;;;;;;;10.75;6.92;;;;;;;7.51;86.92;92534.32;1752755;80;21891;-90
2021/09/24 00:59:35;;;;;;;7.37;5.45;;;;;;;7.53;87.26;92530.65;1746636;80;21011;-89
2021/09/24 01:02:01;;;;;;;5.87;4.80;;;;;;;7.55;87.11;92517.48;1761856;80;21010;-91
2021/09/24 01:04:29;;;;;;;7.15;5.83;;;;;;;7.56;87.29;92503.39;1679226;82;21580;-88
2021/09/24 01:06:56;;;;;;;7.95;5.50;;;;;;;7.57;87.51;92538.75;1749367;79;21101;-87
2021/09/24 01:09:22;;;;;;;12.35;7.47;;;;;;;7.59;87.51;92516.69;1766355;79;21132;-90
2021/09/24 01:11:48;;;;;;;8.28;5.60;;;;;;;7.59;87.79;92505.88;1799283;77;21500;-87
2021/09/24 01:14:15;;;;;;;10.15;6.45;;;;;;;7.61;87.98;92526.55;1743750;77;21078;-87
2021/09/24 01:16:43;;;;;;;7.20;6.10;;;;;;;7.61;88.06;92485.37;1757087;80;21036;-91
2021/09/24 01:19:10;;;;;;;13.10;6.90;;;;;;;7.63;88.44;92476.84;1717602;81;21072;-87
2021/09/24 01:21:41;;;;;;;12.93;6.22;;;;;;;7.65;88.57;92484.00;1761818;80;21030;-89
2021/09/24 01:24:07;;;;;;;9.33;6.33;;;;;;;7.68;88.72;92502.14;1728638;81;21014;-87
2021/09/24 01:26:34;;;;;;;8.98;6.22;;;;;;;7.68;89.12;92520.50;1763363;79;21010;-89
2021/09/24 01:29:02;;;;;;;9.65;6.50;;;;;;;7.67;89.62;92500.58;1773345;79;21052;-91
2021/09/24 01:31:28;;;;;;;10.80;6.15;;;;;;;7.65;89.72;92482.64;1759589;79;21729;-87
2021/09/24 01:33:54;;;;;;;8.20;6.10;;;;;;;7.62;90.68;92449.02;1789961;78;21156;-87
2021/09/24 01:36:21;;;;;;;9.85;7.17;;;;;;;7.59;90.95;92460.64;1753143;80;21054;-89
2021/09/24 01:38:47;;;;;;;6.87;5.40;;;;;;;7.55;90.79;92442.32;1725331;81;20973;-90
2021/09/24 01:41:14;;;;;;;8.60;6.22;;;;;;;7.52;91.71;92441.20;1736999;81;21496;-88
2021/09/24 01:43:42;;;;;;;8.03;5.70;;;;;;;7.50;92.17;92427.30;1753287;79;21073;-89
2021/09/24 01:46:10;;;;;;;11.03;5.92;;;;;;;7.48;92.55;92418.03;1685688;81;21029;-90
2021/09/24 01:48:43;;;;;;;7.60;6.10;;;;;;;7.44;92.54;92407.23;1729780;81;21065;-88
